Time;durP1;ratioP1;P1;durP2;ratioP2;P2;SDS_P1;SDS_P2;PMS_P1;PMS_P2;Temp;Humidity;BMP_temperature;BMP_pressure;BME280_temperature;BME280_humidity;BME280_pressure;Samples;Min_cycle;Max_cycle;Signal;HPM_P1;HPM_P2
2022/03/26 00:01:51;;;;;;;18.58;8.75;;;10.20;66.10;;;;;;6340615;22;20535;-86
2022/03/26 00:04:32;;;;;;;18.10;8.23;;;10.20;66.10;;;;;;6313232;22;20060;-85
2022/03/26 00:07:11;;;;;;;18.75;8.35;;;10.10;66.20;;;;;;6340750;22;20010;-86
2022/03/26 00:09:40;;;;;;;17.20;7.22;;;10.00;66.40;;;;;;6313341;22;20006;-85
2022/03/26 00:12:10;;;;;;;17.92;7.43;;;10.00;66.60;;;;;;6309846;22;20168;-85
2022/03/26 00:14:44;;;;;;;18.88;8.30;;;10.00;66.60;;;;;;6311888;22;20033;-86
2022/03/26 00:17:19;;;;;;;17.35;7.47;;;9.90;66.60;;;;;;6340336;22;20006;-86
2022/03/26 00:19:57;;;;;;;;;;;;;;;;;;;;;
2022/03/26 00:22:31;;;;;;;19.10;8.55;;;9.90;66.90;;;;;;6340875;22;20026;-86
2022/03/26 00:25:00;;;;;;;16.65;7.82;;;9.80;67.10;;;;;;6313888;22;20341;-86
2022/03/26 00:27:44;;;;;;;15.85;7.55;;;9.80;67.10;;;;;;6341601;22;20086;-86
2022/03/26 00:30:13;;;;;;;21.80;8.10;;;9.70;67.60;;;;;;6314246;22;20009;-86
2022/03/26 00:32:45;;;;;;;17.83;7.75;;;9.60;68.00;;;;;;6315139;22;20010;-86
2022/03/26 00:38:48;;;;;;;16.77;7.38;;;9.50;68.20;;;;;;6316924;22;20460;-86
2022/03/26 00:41:14;;;;;;;16.00;7.05;;;9.60;68.30;;;;;;6318835;22;20061;-86
2022/03/26 00:43:42;;;;;;;16.20;7.57;;;9.50;68.40;;;;;;6337033;22;20027;-85
2022/03/26 00:46:43;;;;;;;;;;;;;;;;;;;;;
2022/03/26 00:49:21;;;;;;;18.52;8.27;;;9.40;68.90;;;;;;6341063;22;20077;-87
2022/03/26 00:52:03;;;;;;;18.08;8.48;;;9.30;69.10;;;;;;6315292;22;19999;-86
2022/03/26 00:54:47;;;;;;;18.92;8.57;;;9.40;69.10;;;;;;6312127;22;20007;-86
2022/03/26 00:57:21;;;;;;;17.02;8.00;;;9.30;69.20;;;;;;6340262;22;19994;-86
2022/03/26 01:00:12;;;;;;;19.33;8.13;;;9.10;69.10;;;;;;6312289;22;20002;-86
2022/03/26 01:02:47;;;;;;;18.80;7.72;;;9.20;69.50;;;;;;6301667;22;20136;-87
2022/03/26 01:05:16;;;;;;;14.52;7.55;;;9.00;69.70;;;;;;6312805;22;20121;-86
2022/03/26 01:07:52;;;;;;;16.88;8.07;;;9.10;69.50;;;;;;6313172;22;20010;-87
2022/03/26 01:10:34;;;;;;;;;;;;;;;;;;;;;
2022/03/26 01:13:04;;;;;;;17.05;8.07;;;9.20;69.70;;;;;;6334461;22;20074;-87
2022/03/26 01:15:37;;;;;;;19.42;8.30;;;9.20;69.60;;;;;;6313146;22;20034;-87
2022/03/26 01:18:06;;;;;;;15.48;7.78;;;9.20;69.80;;;;;;6314385;22;20041;-86
2022/03/26 01:20:43;;;;;;;19.45;8.20;;;9.00;70.00;;;;;;6315976;22;20003;-87
2022/03/26 01:23:19;;;;;;;17.42;8.07;;;9.00;70.20;;;;;;6320147;22;20398;-87
2022/03/26 01:25:47;;;;;;;12.93;6.25;;;9.00;70.00;;;;;;6321824;22;20076;-83
2022/03/26 01:28:22;;;;;;;19.17;7.90;;;9.00;69.90;;;;;;6320269;22;20010;-85
2022/03/26 01:30:51;;;;;;;17.25;7.90;;;9.00;70.00;;;;;;6319236;22;20117;-85
2022/03/26 01:33:16;;;;;;;15.95;7.88;;;9.10;69.80;;;;;;6314975;22;20474;-83
2022/03/26 01:35:51;;;;;;;22.48;8.32;;;9.10;69.80;;;;;;6315445;22;19999;-85
2022/03/26 01:39:23;;;;;;;16.83;7.55;;;9.10;69.80;;;;;;6312407;22;20003;-84
2022/03/26 01:41:53;;;;;;;21.65;7.75;;;9.20;70.10;;;;;;6266378;22;20077;-85
2022/03/26 01:44:25;;;;;;;17.85;7.47;;;9.00;70.10;;;;;;6312174;22;20022;-85
2022/03/26 01:47:03;;;;;;;17.52;7.18;;;9.00;70.30;;;;;;6311514;22;20083;-86
2022/03/26 01:49:35;;;;;;;15.90;7.25;;;8.90;70.60;;;;;;6311046;22;20010;-84
2022/03/26 01:52:17;;;;;;;17.00;7.78;;;8.90;70.90;;;;;;6312135;22;20349;-84
2022/03/26 01:54:44;;;;;;;18.67;7.85;;;8.90;70.80;;;;;;6311403;22;20003;-85
2022/03/26 01:57:12;;;;;;;17.08;7.63;;;8.80;70.80;;;;;;6338581;22;20030;-86
2022/03/26 01:59:48;;;;;;;17.20;6.75;;;8.80;70.90;;;;;;6338651;22;20019;-86
2022/03/26 02:02:20;;;;;;;18.58;7.15;;;8.80;71.20;;;;;;6313227;22;20092;-85
2022/03/26 02:04:51;;;;;;;19.35;7.80;;;8.80;71.10;;;;;;6310774;22;20003;-85
2022/03/26 02:07:20;;;;;;;18.73;7.82;;;8.80;71.20;;;;;;6340487;22;20048;-85
2022/03/26 02:09:49;;;;;;;21.45;8.05;;;8.70;71.30;;;;;;6340104;22;19998;-85
2022/03/26 02:12:39;;;;;;;18.75;7.82;;;8.70;71.20;;;;;;6339919;22;20028;-85
2022/03/26 02:15:32;;;;;;;18.85;8.13;;;8.70;71.40;;;;;;6311404;22;20010;-85
2022/03/26 02:17:58;;;;;;;16.23;7.50;;;8.70;71.30;;;;;;6310991;22;20023;-86
2022/03/26 02:20:27;;;;;;;16.75;7.35;;;8.70;71.60;;;;;;6311853;22;20002;-86
2022/03/26 02:22:56;;;;;;;18.60;8.27;;;8.60;71.60;;;;;;6339868;22;20002;-86
2022/03/26 02:25:25;;;;;;;16.63;6.97;;;8.60;71.90;;;;;;6312589;22;20006;-86
2022/03/26 02:28:06;;;;;;;17.38;7.53;;;8.60;71.70;;;;;;6311505;22;20011;-85
2022/03/26 02:30:47;;;;;;;18.00;7.18;;;8.70;72.20;;;;;;6311738;22;20007;-87
2022/03/26 02:33:30;;;;;;;16.45;7.55;;;8.50;72.40;;;;;;6313274;22;20007;-86
2022/03/26 02:36:09;;;;;;;19.50;8.02;;;8.40;72.40;;;;;;6311701;22;19999;-86
2022/03/26 02:38:45;;;;;;;19.05;8.57;;;8.50;72.60;;;;;;6311704;22;20058;-86
2022/03/26 02:41:13;;;;;;;18.40;7.60;;;8.40;72.60;;;;;;6312572;22;20044;-85
2022/03/26 02:43:45;;;;;;;22.45;8.95;;;8.30;73.20;;;;;;6310346;22;20082;-86
2022/03/26 08:46:27;;;;;;;17.52;8.23;;;11.90;67.90;;;;;;6334999;22;20023;-87
2022/03/26 08:49:02;;;;;;;17.67;8.63;;;11.90;67.60;;;;;;6363434;22;20026;-86
2022/03/26 08:51:28;;;;;;;19.77;9.00;;;12.10;67.90;;;;;;6338976;22;20013;-86
2022/03/26 08:53:59;;;;;;;16.23;7.70;;;12.10;66.80;;;;;;6371359;22;20022;-86
2022/03/26 08:56:28;;;;;;;16.25;8.02;;;12.20;66.90;;;;;;6339642;22;20011;-86
2022/03/26 08:58:55;;;;;;;20.25;8.45;;;12.20;67.10;;;;;;6340684;22;19995;-87
2022/03/26 09:01:25;;;;;;;18.70;8.00;;;12.30;66.80;;;;;;6339119;22;19995;-87
2022/03/26 09:03:54;;;;;;;19.00;8.90;;;12.50;66.60;;;;;;6311032;22;20003;-87
2022/03/26 09:06:20;;;;;;;17.23;7.90;;;12.70;66.40;;;;;;6332085;22;20490;-87
2022/03/26 09:08:50;;;;;;;15.90;8.07;;;12.80;66.40;;;;;;6339002;22;19999;-86
2022/03/26 09:11:23;;;;;;;20.45;9.18;;;12.90;65.40;;;;;;6339131;22;20767;-86
2022/03/26 09:13:49;;;;;;;19.48;8.25;;;12.80;66.00;;;;;;6337808;22;20053;-87
2022/03/26 09:16:17;;;;;;;19.50;8.57;;;12.90;65.80;;;;;;6310117;22;20596;-88
2022/03/26 09:18:52;;;;;;;20.05;9.13;;;13.00;65.80;;;;;;6312898;22;20257;-88
2022/03/26 09:21:49;;;;;;;;;;;;;;;;;;;;;
2022/03/26 09:24:16;;;;;;;17.27;7.80;;;13.20;65.30;;;;;;6340584;22;20098;-88
2022/03/26 09:26:45;;;;;;;20.88;9.10;;;13.30;65.30;;;;;;6311372;22;20010;-88
2022/03/26 09:29:16;;;;;;;17.35;7.47;;;13.20;65.00;;;;;;6314351;22;20054;-88
2022/03/26 09:31:45;;;;;;;20.13;9.27;;;13.30;65.80;;;;;;6307481;22;20002;-88
2022/03/26 09:34:11;;;;;;;16.92;7.93;;;13.20;65.90;;;;;;6310539;22;20429;-88
2022/03/26 09:36:37;;;;;;;19.55;9.00;;;13.30;65.80;;;;;;6309149;22;20014;-87
2022/03/26 09:39:09;;;;;;;21.55;8.90;;;13.40;65.00;;;;;;6342958;22;20035;-87
2022/03/26 09:41:40;;;;;;;19.70;8.35;;;13.50;64.90;;;;;;6338675;22;20011;-87
2022/03/26 09:44:25;;;;;;;18.30;8.50;;;13.70;64.50;;;;;;6336957;22;20011;-87
2022/03/26 09:46:51;;;;;;;18.38;8.52;;;13.80;64.50;;;;;;6307832;22;20003;-88
2022/03/26 10:01:29;;;;;;;20.42;8.93;;;14.60;62.90;;;;;;6316496;22;20057;-90
2022/03/26 10:05:15;;;;;;;21.95;9.50;;;14.80;61.70;;;;;;6206245;23;20062;-93
2022/03/26 10:08:40;;;;;;;22.10;8.70;;;15.00;61.00;;;;;;6187529;23;20025;-91
2022/03/26 10:15:18;;;;;;;17.65;8.43;;;15.40;60.80;;;;;;6101037;23;20646;-92
2022/03/26 10:18:23;;;;;;;;;;;;;;;;;;;;;
2022/03/26 10:21:31;;;;;;;20.13;8.88;;;15.80;60.20;;;;;;6286698;22;20090;-92
2022/03/26 10:24:28;;;;;;;17.73;8.55;;;15.90;59.50;;;;;;6309669;22;20457;-93
2022/03/26 10:27:23;;;;;;;21.85;10.18;;;15.80;59.70;;;;;;6312222;22;20094;-90
2022/03/26 10:30:07;;;;;;;17.42;8.20;;;16.10;59.40;;;;;;6312055;22;19998;-91
2022/03/26 10:32:49;;;;;;;17.05;8.48;;;16.20;59.30;;;;;;6311912;22;20340;-91
2022/03/26 10:35:37;;;;;;;17.95;9.40;;;16.20;58.90;;;;;;6313116;22;20029;-91
2022/03/26 10:38:13;;;;;;;20.92;9.63;;;16.50;58.30;;;;;;6314787;22;20059;-90
2022/03/26 10:40:39;;;;;;;19.27;9.80;;;16.60;57.90;;;;;;6309851;22;20425;-87
2022/03/26 10:43:08;;;;;;;19.38;9.38;;;16.70;58.00;;;;;;6336863;22;20025;-87
2022/03/26 10:45:37;;;;;;;17.45;8.70;;;16.90;57.70;;;;;;6309015;22;20587;-87
2022/03/26 10:48:09;;;;;;;17.95;9.02;;;17.10;56.90;;;;;;6331106;22;19999;-87
2022/03/26 10:50:35;;;;;;;18.15;9.30;;;17.20;58.30;;;;;;6330944;22;20240;-88
2022/03/26 10:53:13;;;;;;;17.05;8.65;;;17.50;56.70;;;;;;6334389;22;20439;-88
2022/03/26 10:55:43;;;;;;;18.90;9.43;;;17.70;55.60;;;;;;6308526;22;20022;-88
2022/03/26 10:58:09;;;;;;;19.65;9.32;;;17.50;55.40;;;;;;6308624;22;20013;-87
2022/03/26 11:00:35;;;;;;;18.90;8.25;;;17.70;55.40;;;;;;6311481;22;20014;-87
2022/03/26 11:03:02;;;;;;;19.65;9.90;;;17.70;55.80;;;;;;6346934;22;19998;-87
2022/03/26 11:05:29;;;;;;;18.75;8.57;;;17.80;55.80;;;;;;6351383;22;20013;-87
2022/03/26 11:08:11;;;;;;;19.45;8.23;;;17.90;54.80;;;;;;6321918;22;19999;-90
2022/03/26 11:15:05;;;;;;;16.73;7.85;;;18.40;53.70;;;;;;6070492;23;20336;-90
2022/03/26 11:18:21;;;;;;;17.75;8.55;;;18.30;53.00;;;;;;6037679;23;20000;-92
2022/03/26 11:21:41;;;;;;;14.27;7.55;;;18.40;52.20;;;;;;6042377;23;20039;-90
2022/03/26 11:24:26;;;;;;;19.38;8.07;;;18.50;52.40;;;;;;6125641;23;20010;-89
2022/03/26 11:27:21;;;;;;;15.70;8.20;;;18.60;52.10;;;;;;6328306;22;20003;-90
2022/03/26 11:30:40;;;;;;;18.20;8.10;;;18.80;51.50;;;;;;6308788;22;20022;-91
2022/03/26 11:33:23;;;;;;;14.57;7.30;;;19.00;51.20;;;;;;6309305;22;20007;-91
2022/03/26 11:36:10;;;;;;;16.08;7.28;;;19.10;49.50;;;;;;6338668;22;20038;-91
2022/03/26 11:39:13;;;;;;;15.73;7.70;;;18.80;50.10;;;;;;6314665;22;20003;-90
2022/03/26 11:41:45;;;;;;;14.52;7.35;;;18.70;50.40;;;;;;6311664;22;20056;-93
2022/03/26 11:44:45;;;;;;;17.73;7.80;;;19.00;49.90;;;;;;6339867;22;20030;-92
2022/03/26 11:50:45;;;;;;;14.85;7.72;;;18.90;49.20;;;;;;6346396;22;20006;-92
2022/03/26 11:53:34;;;;;;;13.52;7.72;;;18.80;49.20;;;;;;6315608;22;20032;-91
2022/03/26 11:59:20;;;;;;;18.77;8.00;;;18.40;50.10;;;;;;6350948;22;20025;-89
2022/03/26 12:02:46;;;;;;;15.10;7.65;;;18.60;49.10;;;;;;6341374;22;20014;-88
2022/03/26 12:09:27;;;;;;;;;;;;;;;;;;;;;
2022/03/26 12:12:30;;;;;;;15.32;6.65;;;18.90;48.40;;;;;;6339447;22;20485;-90
2022/03/26 12:15:10;;;;;;;13.85;6.57;;;19.00;47.70;;;;;;6337953;22;20023;-90
2022/03/26 12:18:02;;;;;;;15.00;7.63;;;19.10;47.70;;;;;;6309052;22;20014;-90
2022/03/26 12:21:11;;;;;;;13.77;6.43;;;19.10;48.40;;;;;;6304008;22;20099;-90
2022/03/26 12:24:38;;;;;;;;;;;;;;;;;;;;;
2022/03/26 12:42:20;;;;;;;14.02;6.57;;;20.00;48.00;;;;;;6363461;22;20034;-84
2022/03/26 12:44:46;;;;;;;13.15;6.57;;;20.10;47.30;;;;;;6377636;22;20026;-88
2022/03/26 12:47:57;;;;;;;13.82;5.97;;;20.00;46.40;;;;;;6364697;22;20007;-88
2022/03/26 12:50:26;;;;;;;16.10;6.65;;;20.00;46.30;;;;;;6304895;22;19995;-87
2022/03/26 12:52:54;;;;;;;12.35;6.55;;;20.00;46.30;;;;;;6321471;22;20026;-87
2022/03/26 12:55:20;;;;;;;14.80;6.30;;;19.90;46.30;;;;;;6319618;22;20006;-85
2022/03/26 13:00:35;;;;;;;13.65;6.25;;;19.70;46.00;;;;;;6346624;22;20062;-86
2022/03/26 13:03:08;;;;;;;11.05;5.45;;;19.80;44.50;;;;;;6344371;22;20105;-87
2022/03/26 13:05:39;;;;;;;12.27;5.68;;;19.80;44.70;;;;;;6345297;22;20557;-88
2022/03/26 13:08:19;;;;;;;11.27;5.90;;;19.70;45.20;;;;;;6322224;22;20046;-88
2022/03/26 13:10:45;;;;;;;10.15;5.32;;;19.70;44.80;;;;;;6318825;22;20028;-88
2022/03/26 13:13:14;;;;;;;10.85;5.43;;;19.80;44.80;;;;;;6347676;22;20028;-88
2022/03/26 13:16:01;;;;;;;11.15;5.10;;;20.10;44.30;;;;;;6347916;22;20094;-88
2022/03/26 13:18:34;;;;;;;8.32;4.57;;;20.30;43.20;;;;;;6320434;22;20006;-89
2022/03/26 13:21:22;;;;;;;10.00;5.10;;;20.30;42.80;;;;;;6316250;22;20014;-89
2022/03/26 13:24:37;;;;;;;10.18;4.68;;;20.30;43.10;;;;;;6319307;22;20023;-89
2022/03/26 13:27:07;;;;;;;8.70;4.47;;;20.40;42.50;;;;;;6310050;22;20019;-89
2022/03/26 13:29:35;;;;;;;12.05;5.20;;;20.60;42.60;;;;;;6323870;22;20026;-87
2022/03/26 13:32:07;;;;;;;11.73;5.18;;;20.60;42.90;;;;;;6320427;22;20006;-89
2022/03/26 13:34:47;;;;;;;10.88;5.15;;;20.70;42.60;;;;;;6345336;22;19995;-89
2022/03/26 13:37:22;;;;;;;11.68;5.45;;;21.10;43.10;;;;;;6318491;22;20002;-88
2022/03/26 13:40:03;;;;;;;7.03;3.65;;;21.40;42.50;;;;;;6345292;22;20002;-89
2022/03/26 13:42:30;;;;;;;10.40;4.88;;;21.60;41.40;;;;;;6348448;22;20009;-88
2022/03/26 13:45:04;;;;;;;10.05;5.30;;;21.50;41.50;;;;;;6348235;22;19995;-88
2022/03/26 13:47:37;;;;;;;9.45;4.75;;;21.80;42.00;;;;;;6321711;22;20066;-89
2022/03/26 13:50:11;;;;;;;10.85;5.45;;;21.80;42.20;;;;;;6295538;22;20006;-89
2022/03/26 13:52:43;;;;;;;9.18;4.45;;;21.70;43.10;;;;;;6320916;22;20464;-88
2022/03/26 13:55:37;;;;;;;10.20;5.00;;;21.70;41.50;;;;;;6347285;22;20003;-89
2022/03/26 13:58:10;;;;;;;9.77;5.22;;;21.60;41.50;;;;;;6321263;22;20003;-88
2022/03/26 14:00:37;;;;;;;10.95;5.70;;;22.00;41.40;;;;;;6348179;22;20003;-88
2022/03/26 14:03:03;;;;;;;13.10;5.95;;;22.30;41.40;;;;;;6320363;22;20433;-88
2022/03/26 14:05:33;;;;;;;13.98;6.03;;;22.30;41.70;;;;;;6346763;22;19999;-88
2022/03/26 14:08:08;;;;;;;10.25;5.25;;;22.80;41.80;;;;;;6319542;22;20006;-87
2022/03/26 14:10:41;;;;;;;11.25;5.53;;;22.60;40.80;;;;;;6320070;22;19999;-87
2022/03/26 14:13:12;;;;;;;10.68;4.95;;;22.50;40.50;;;;;;6348565;22;20002;-88
2022/03/26 14:15:39;;;;;;;8.80;4.43;;;22.50;41.10;;;;;;6318359;22;20003;-88
2022/03/26 14:18:07;;;;;;;11.18;5.25;;;22.80;41.10;;;;;;6347672;22;19995;-87
2022/03/26 14:20:34;;;;;;;11.38;5.72;;;22.80;40.80;;;;;;6319784;22;20106;-88
2022/03/26 14:23:01;;;;;;;10.18;5.20;;;22.80;40.40;;;;;;6319266;22;20006;-89
2022/03/26 14:25:31;;;;;;;8.88;5.03;;;23.10;40.00;;;;;;6345925;22;19991;-88
2022/03/26 14:28:00;;;;;;;9.88;4.78;;;23.10;40.20;;;;;;6347260;22;19991;-88
2022/03/26 14:30:29;;;;;;;10.00;5.25;;;23.10;38.90;;;;;;6346273;22;20006;-89
2022/03/26 14:32:58;;;;;;;10.82;5.07;;;22.90;39.30;;;;;;6318652;22;20064;-89
2022/03/26 14:35:27;;;;;;;10.50;5.28;;;23.40;39.80;;;;;;6346792;22;20524;-88
2022/03/26 14:37:53;;;;;;;8.95;5.75;;;23.50;39.80;;;;;;6318719;22;20052;-89
2022/03/26 14:40:20;;;;;;;11.80;6.10;;;24.00;39.90;;;;;;6318340;22;20452;-89
2022/03/26 14:42:49;;;;;;;12.38;5.75;;;23.90;39.60;;;;;;6318934;22;20014;-90
2022/03/26 14:45:15;;;;;;;10.27;4.97;;;24.20;40.30;;;;;;6318993;22;20003;-89
2022/03/26 14:47:40;;;;;;;10.32;4.95;;;24.50;38.60;;;;;;6319364;22;20033;-89
2022/03/26 14:50:16;;;;;;;9.73;4.95;;;24.20;38.50;;;;;;6319668;22;20022;-89
2022/03/26 14:53:05;;;;;;;10.38;5.57;;;24.50;39.40;;;;;;6323649;22;20006;-90
2022/03/26 14:55:31;;;;;;;10.10;4.70;;;24.80;39.00;;;;;;6319321;22;20436;-89
2022/03/26 14:58:05;;;;;;;10.70;4.95;;;24.40;37.70;;;;;;6326710;22;20003;-88
2022/03/26 15:00:31;;;;;;;9.65;4.72;;;24.30;37.40;;;;;;6319493;22;20014;-89
2022/03/26 15:02:57;;;;;;;10.57;5.20;;;23.90;37.80;;;;;;6318200;22;20014;-89
2022/03/26 15:05:28;;;;;;;11.10;5.90;;;23.80;38.10;;;;;;6345614;22;19999;-89
2022/03/26 15:07:53;;;;;;;10.00;4.78;;;23.50;38.30;;;;;;6292728;22;20013;-89
2022/03/26 15:10:23;;;;;;;11.77;5.65;;;23.60;38.20;;;;;;6346295;22;19995;-89
2022/03/26 15:12:51;;;;;;;11.18;5.07;;;23.60;38.30;;;;;;6345207;22;19998;-89
2022/03/26 15:19:00;;;;;;;9.05;4.68;;;23.90;37.40;;;;;;6223285;23;20012;-90
2022/03/26 15:21:26;;;;;;;9.55;4.55;;;23.90;37.10;;;;;;6238763;22;20069;-89
2022/03/26 15:23:55;;;;;;;9.38;4.82;;;23.90;37.60;;;;;;6320761;22;20429;-89
2022/03/26 15:26:21;;;;;;;7.75;3.80;;;23.80;37.00;;;;;;6347853;22;20006;-90
2022/03/26 15:28:47;;;;;;;10.95;4.82;;;24.10;37.80;;;;;;6351024;22;20002;-89
2022/03/26 15:31:15;;;;;;;8.68;4.32;;;24.10;37.30;;;;;;6324482;22;20051;-89
2022/03/26 15:33:41;;;;;;;8.20;3.58;;;24.00;37.50;;;;;;6348112;22;20298;-88
2022/03/26 15:36:07;;;;;;;8.27;3.58;;;23.50;37.50;;;;;;6320523;22;20024;-89
2022/03/26 15:38:35;;;;;;;8.50;3.78;;;23.30;37.80;;;;;;6320680;22;20002;-90
2022/03/26 15:41:01;;;;;;;8.82;4.00;;;23.60;37.50;;;;;;6296217;22;20494;-89
2022/03/26 15:43:26;;;;;;;8.93;4.50;;;23.40;37.70;;;;;;6320687;22;20030;-90
2022/03/26 15:45:55;;;;;;;7.10;3.65;;;23.50;37.70;;;;;;6320215;22;20081;-88
2022/03/26 15:48:20;;;;;;;8.75;4.38;;;23.30;38.20;;;;;;6321678;22;20054;-88
2022/03/26 15:50:54;;;;;;;9.45;4.68;;;22.90;37.90;;;;;;6349188;22;19999;-88
2022/03/26 15:53:20;;;;;;;8.98;4.28;;;22.70;38.40;;;;;;6320093;22;20059;-88
2022/03/26 15:55:46;;;;;;;12.52;4.55;;;22.60;38.20;;;;;;6320724;22;20006;-88
2022/03/26 15:58:14;;;;;;;7.10;3.92;;;22.80;39.00;;;;;;6321514;22;20029;-89
2022/03/26 16:00:45;;;;;;;10.95;4.45;;;22.70;39.40;;;;;;6349835;22;20349;-88
2022/03/26 16:03:12;;;;;;;8.15;4.40;;;22.40;39.60;;;;;;6295438;22;20053;-88
2022/03/26 16:05:37;;;;;;;7.63;4.05;;;22.20;39.70;;;;;;6319546;22;20030;-89
2022/03/26 16:08:03;;;;;;;8.90;4.45;;;21.70;40.20;;;;;;6347476;22;20006;-88
2022/03/26 16:10:32;;;;;;;8.77;4.13;;;21.10;40.80;;;;;;6346630;22;19999;-89
2022/03/26 16:13:01;;;;;;;6.35;3.63;;;20.30;41.90;;;;;;6349000;22;19995;-88
2022/03/26 16:15:27;;;;;;;6.78;3.80;;;19.90;41.80;;;;;;6348838;22;19995;-88
2022/03/26 16:17:54;;;;;;;8.07;4.10;;;19.50;41.80;;;;;;6321649;22;20003;-88
2022/03/26 16:20:20;;;;;;;10.40;4.20;;;19.00;42.50;;;;;;6321737;22;20361;-89
2022/03/26 16:22:46;;;;;;;8.70;4.30;;;18.80;43.00;;;;;;6321490;22;20425;-88
2022/03/26 16:25:15;;;;;;;8.20;4.30;;;18.50;43.20;;;;;;6321510;22;19998;-89
2022/03/26 16:27:41;;;;;;;8.85;4.32;;;18.30;43.50;;;;;;6320347;22;20011;-88
2022/03/26 16:30:11;;;;;;;9.52;4.18;;;18.20;43.80;;;;;;6348021;22;20139;-88
2022/03/26 16:32:37;;;;;;;10.77;3.97;;;18.00;44.60;;;;;;6350025;22;20028;-89
2022/03/26 16:35:04;;;;;;;10.68;4.88;;;18.00;45.00;;;;;;6347536;22;20054;-88
2022/03/26 16:37:33;;;;;;;10.77;4.50;;;17.70;45.20;;;;;;6320760;22;20010;-89
2022/03/26 16:39:59;;;;;;;8.82;4.18;;;17.60;46.00;;;;;;6348443;22;19999;-88
2022/03/26 16:42:30;;;;;;;8.45;4.40;;;17.60;45.80;;;;;;6320993;22;20011;-89
2022/03/26 16:44:56;;;;;;;10.52;3.85;;;17.50;46.20;;;;;;6321126;22;20077;-89
2022/03/26 16:47:45;;;;;;;9.30;4.35;;;17.40;46.30;;;;;;6317881;22;19999;-89
2022/03/26 16:50:19;;;;;;;8.45;4.25;;;17.30;46.60;;;;;;6320698;22;20081;-88
2022/03/26 16:52:47;;;;;;;8.02;4.13;;;17.20;46.00;;;;;;6349525;22;20014;-89
2022/03/26 16:55:17;;;;;;;10.50;4.45;;;17.20;46.50;;;;;;6349199;22;19998;-88
2022/03/26 16:57:45;;;;;;;10.15;4.93;;;17.20;46.30;;;;;;6349834;22;19999;-88
2022/03/26 17:00:12;;;;;;;8.50;4.38;;;16.90;46.20;;;;;;6323640;22;19999;-89
2022/03/26 17:02:44;;;;;;;10.90;3.85;;;17.00;46.60;;;;;;6322404;22;19995;-88
2022/03/26 17:05:10;;;;;;;;;;;16.80;47.30;;;;;;6322604;22;19999;-89
2022/03/26 17:07:39;;;;;;;8.35;3.67;;;16.60;46.90;;;;;;6348486;22;19947;-88
2022/03/26 17:10:09;;;;;;;8.02;4.10;;;16.60;47.30;;;;;;6348990;22;20577;-89
2022/03/26 17:12:41;;;;;;;8.52;4.03;;;16.40;47.30;;;;;;6349642;22;20297;-89
2022/03/26 17:15:08;;;;;;;8.50;4.03;;;16.30;46.70;;;;;;6349618;22;19995;-87
2022/03/26 17:17:37;;;;;;;8.90;4.13;;;16.30;46.80;;;;;;6320004;22;20013;-89
2022/03/26 17:20:07;;;;;;;8.32;3.63;;;16.20;46.90;;;;;;6349114;22;20035;-89
2022/03/26 17:22:33;;;;;;;9.10;4.57;;;16.10;46.70;;;;;;6349206;22;20105;-88
2022/03/26 17:24:59;;;;;;;7.57;3.55;;;16.10;46.80;;;;;;6341466;22;20002;-89
2022/03/26 17:27:24;;;;;;;9.02;4.22;;;15.70;46.80;;;;;;6342437;22;19994;-88
2022/03/26 17:29:55;;;;;;;10.13;3.88;;;15.90;47.50;;;;;;6344609;22;20082;-88
2022/03/26 17:32:21;;;;;;;8.20;4.15;;;15.80;47.50;;;;;;6321592;22;20029;-88
2022/03/26 17:34:47;;;;;;;7.55;4.07;;;15.70;47.30;;;;;;6347878;22;20003;-88
2022/03/26 17:37:18;;;;;;;8.45;4.18;;;15.70;46.70;;;;;;6320332;22;20053;-89
2022/03/26 17:40:06;;;;;;;9.00;4.10;;;15.60;47.00;;;;;;6349044;22;20070;-89
2022/03/26 17:42:32;;;;;;;13.23;5.05;;;15.50;47.90;;;;;;6314578;22;20029;-89
2022/03/26 17:44:57;;;;;;;11.68;4.35;;;15.50;47.30;;;;;;6347574;22;19999;-88
2022/03/26 17:47:33;;;;;;;7.60;4.07;;;15.30;47.30;;;;;;6351458;22;20002;-89
2022/03/26 17:50:00;;;;;;;9.20;4.35;;;15.20;47.90;;;;;;6335924;22;19994;-89
2022/03/26 17:52:26;;;;;;;8.25;3.88;;;15.10;48.10;;;;;;6366399;22;19998;-88
2022/03/26 17:54:52;;;;;;;11.57;3.80;;;15.10;47.40;;;;;;6362616;22;20011;-89
2022/03/26 17:57:33;;;;;;;7.28;3.65;;;15.00;47.50;;;;;;6359253;22;20002;-89
2022/03/26 17:59:59;;;;;;;11.50;4.30;;;14.90;47.40;;;;;;6347716;22;19991;-89
2022/03/26 18:02:25;;;;;;;7.25;3.33;;;14.90;48.20;;;;;;6346730;22;20017;-89
2022/03/26 18:04:57;;;;;;;8.80;3.92;;;14.80;48.00;;;;;;6348153;22;20003;-89
2022/03/26 18:07:32;;;;;;;;;;;14.70;47.90;;;;;;6322144;22;20014;-89
2022/03/26 18:10:01;;;;;;;7.03;3.03;;;14.60;48.30;;;;;;6349263;22;20342;-89
2022/03/26 18:12:31;;;;;;;8.35;3.28;;;14.50;47.80;;;;;;6321333;22;19999;-88
2022/03/26 18:14:59;;;;;;;7.45;3.20;;;14.40;48.30;;;;;;6321714;22;19999;-89
2022/03/26 18:17:25;;;;;;;6.97;3.03;;;14.50;47.40;;;;;;6322820;22;20006;-89
2022/03/26 18:19:51;;;;;;;7.68;3.30;;;14.40;47.80;;;;;;6322822;22;20007;-89
2022/03/26 18:22:26;;;;;;;7.40;3.25;;;14.40;47.60;;;;;;6322125;22;20010;-88
2022/03/26 18:25:18;;;;;;;8.48;3.40;;;14.40;47.70;;;;;;6321797;22;20024;-89
2022/03/26 18:27:49;;;;;;;8.95;3.53;;;14.40;47.60;;;;;;6350482;22;20010;-89
2022/03/26 18:30:18;;;;;;;10.47;3.40;;;14.30;47.60;;;;;;6322202;22;20086;-89
2022/03/26 18:32:44;;;;;;;7.60;3.35;;;14.30;47.70;;;;;;6322054;22;20074;-88
2022/03/26 18:35:13;;;;;;;9.82;3.92;;;14.30;47.50;;;;;;6312158;22;20372;-88
2022/03/26 18:37:38;;;;;;;8.90;3.42;;;14.40;47.80;;;;;;6308549;22;20211;-89
2022/03/26 18:40:05;;;;;;;9.23;3.67;;;14.20;47.90;;;;;;6309646;22;20589;-89
2022/03/26 18:42:31;;;;;;;7.18;3.70;;;14.10;47.90;;;;;;6310294;22;20405;-89
2022/03/26 18:45:09;;;;;;;7.13;3.10;;;14.10;48.20;;;;;;6304041;22;20601;-88
2022/03/26 18:47:38;;;;;;;7.25;3.30;;;14.20;48.70;;;;;;6281190;22;20038;-88
2022/03/26 18:50:05;;;;;;;9.30;3.30;;;14.10;49.10;;;;;;6280960;22;20377;-88
2022/03/26 18:52:31;;;;;;;6.93;3.40;;;14.00;49.70;;;;;;6283069;22;20304;-89
2022/03/26 18:54:57;;;;;;;8.40;3.22;;;14.00;50.00;;;;;;6285565;22;20026;-89
2022/03/26 18:57:23;;;;;;;9.27;4.30;;;13.90;50.10;;;;;;6286625;22;20007;-89
2022/03/26 18:59:48;;;;;;;9.45;3.78;;;13.90;50.80;;;;;;6313128;22;20026;-89
2022/03/26 19:02:17;;;;;;;7.72;3.15;;;13.70;51.00;;;;;;6313985;22;20031;-88
2022/03/26 19:04:44;;;;;;;7.60;3.35;;;13.70;51.50;;;;;;6285538;22;20188;-88
2022/03/26 19:07:10;;;;;;;6.72;3.38;;;13.70;51.70;;;;;;6285150;22;20014;-89
2022/03/26 19:09:39;;;;;;;9.00;4.00;;;13.70;51.90;;;;;;6284025;22;19999;-89
2022/03/26 19:12:07;;;;;;;9.40;3.50;;;13.70;52.10;;;;;;6284072;22;20003;-89
2022/03/26 19:14:33;;;;;;;7.80;3.55;;;13.60;52.10;;;;;;6284425;22;20014;-88
2022/03/26 19:17:00;;;;;;;9.70;4.05;;;13.60;52.60;;;;;;6285291;22;20010;-89
2022/03/26 19:19:28;;;;;;;11.68;4.32;;;13.50;52.70;;;;;;6285549;22;20010;-90
2022/03/26 19:21:54;;;;;;;10.98;3.85;;;13.50;53.80;;;;;;6312678;22;20003;-89
2022/03/26 19:24:20;;;;;;;11.60;4.50;;;13.30;53.30;;;;;;6285018;22;20014;-89
2022/03/26 19:26:45;;;;;;;11.30;4.28;;;13.30;53.50;;;;;;6284380;22;20010;-88
2022/03/26 19:31:56;;;;;;;8.57;3.42;;;13.10;53.80;;;;;;6308606;22;20075;-89
2022/03/26 19:34:25;;;;;;;7.85;3.30;;;13.10;54.00;;;;;;6309655;22;19999;-88
2022/03/26 19:36:50;;;;;;;12.38;4.25;;;13.10;53.90;;;;;;6284067;22;20015;-89
2022/03/26 19:39:18;;;;;;;10.43;3.58;;;13.10;54.00;;;;;;6284552;22;20017;-89
2022/03/26 19:41:44;;;;;;;7.47;3.25;;;13.10;54.70;;;;;;6312159;22;20055;-89
2022/03/26 19:44:10;;;;;;;6.75;3.47;;;12.90;54.80;;;;;;6284011;22;20011;-89
2022/03/26 19:46:36;;;;;;;9.00;3.45;;;12.90;55.10;;;;;;6283730;22;20030;-89
2022/03/26 19:49:07;;;;;;;8.45;3.55;;;12.70;55.30;;;;;;6284239;22;20006;-90
2022/03/26 19:51:33;;;;;;;10.02;3.85;;;12.70;55.40;;;;;;6284020;22;20007;-89
2022/03/26 19:53:58;;;;;;;8.52;3.55;;;12.70;55.30;;;;;;6311772;22;20134;-89
2022/03/26 19:56:29;;;;;;;9.48;3.53;;;12.90;55.50;;;;;;6311798;22;20007;-89
2022/03/26 19:58:58;;;;;;;7.13;3.00;;;12.80;55.30;;;;;;6284815;22;20007;-90
2022/03/26 20:01:24;;;;;;;8.63;3.42;;;12.70;55.40;;;;;;6281758;22;20082;-89
2022/03/26 20:03:51;;;;;;;11.00;3.80;;;12.70;55.90;;;;;;6283799;22;20011;-89
2022/03/26 20:06:17;;;;;;;9.13;4.18;;;12.70;55.90;;;;;;6308910;22;20006;-88
2022/03/26 20:08:43;;;;;;;12.02;3.63;;;12.60;55.90;;;;;;6308558;22;19999;-89
2022/03/26 20:11:15;;;;;;;8.85;3.50;;;12.60;56.10;;;;;;6286475;22;20003;-91
2022/03/26 20:13:48;;;;;;;7.70;3.30;;;12.60;56.20;;;;;;6284786;22;20008;-88
2022/03/26 20:19:02;;;;;;;8.13;3.25;;;12.50;56.30;;;;;;6310555;22;20073;-90
2022/03/26 20:21:37;;;;;;;9.38;3.75;;;12.50;57.00;;;;;;6285105;22;20000;-90
2022/03/26 20:24:05;;;;;;;10.07;3.70;;;12.40;56.70;;;;;;6281281;22;20677;-90
2022/03/26 20:26:33;;;;;;;7.72;3.00;;;12.40;57.40;;;;;;6284425;22;20010;-90